• Join FlightAware (Why Join?)
  • Login
  • US Flag 
07:44AM EST


 

Airport Tracker/Info


-or-


 

Live Flight TrackerFlight Track Log ✈ CSN6088 ✈ 21-Sep-2013 ✈ RKSI / ICN - ZYMD / MDG

Flight Track Log - Related Links

Times and Time Zones

All times are in EDT time to prevent confusion due to time zone crossing. See the CSN6088 flight status page for this flight to view local times or setup timezone preferences in your user account.

Time Position Orientation Groundspeed Altitude Reporting Facility
EDT Latitude Longitude Course Direction KTS MPH feet Rate Location/Type
12:33AM 37.5437 126.4801 17° North  Level Estimated
12:34AM 37.6183 126.5097 17° North  Level Estimated
12:35AM 37.6929 126.5394 17° North  Level Estimated
12:36AM 37.7675 126.5692 17° North  Level Estimated
12:37AM 37.8421 126.5990 18° North  Level Estimated
12:38AM 37.9167 126.6288 18° North  Level Estimated
12:39AM 37.9913 126.6588 18° North  Level Estimated
12:40AM 38.0659 126.6888 18° North  Level Estimated
12:41AM 38.1404 126.7188 18° North  Level Estimated
12:42AM 38.2150 126.7489 18° North  Level Estimated
12:43AM 38.2895 126.7791 18° North  Level Estimated
12:44AM 38.3641 126.8093 18° North  Level Estimated
12:45AM 38.4386 126.8396 18° North  Level Estimated
12:46AM 38.5131 126.8700 18° North  Level Estimated
12:47AM 38.5877 126.9004 18° North  Level Estimated
12:48AM 38.6622 126.9309 18° North  Level Estimated
12:49AM 38.7367 126.9614 18° North  Level Estimated
12:50AM 38.8111 126.9920 18° North  Level Estimated
12:51AM 38.8856 127.0227 18° North  Level Estimated
12:52AM 38.9601 127.0535 18° North  Level Estimated
12:53AM 39.0346 127.0843 18° North  Level Estimated
12:54AM 39.1091 127.1151 18° North  Level Estimated
12:55AM 39.1835 127.1461 18° North  Level Estimated
12:56AM 39.2579 127.1771 18° North  Level Estimated
12:57AM 39.3324 127.2082 18° North  Level Estimated
12:58AM 39.4068 127.2393 18° North  Level Estimated
12:59AM 39.4812 127.2705 18° North  Level Estimated
01:00AM 39.5556 127.3018 18° North  Level Estimated
01:01AM 39.6301 127.3331 18° North  Level Estimated
01:02AM 39.7044 127.3645 18° North  Level Estimated
01:03AM 39.7788 127.3960 18° North  Level Estimated
01:04AM 39.8532 127.4275 18° North  Level Estimated
01:05AM 39.9276 127.4591 18° North  Level Estimated
01:06AM 40.0019 127.4908 18° North  Level Estimated
01:07AM 40.0763 127.5225 18° North  Level Estimated
01:08AM 40.1506 127.5543 18° North  Level Estimated
01:09AM 40.2250 127.5862 18° North  Level Estimated
01:10AM 40.2993 127.6181 18° North  Level Estimated
01:11AM 40.3736 127.6502 18° North  Level Estimated
01:12AM 40.4479 127.6823 18° North  Level Estimated
01:13AM 40.5222 127.7144 18° North  Level Estimated
01:14AM 40.5965 127.7467 18° North  Level Estimated
01:15AM 40.6708 127.7790 18° North  Level Estimated
01:16AM 40.7451 127.8114 18° North  Level Estimated
01:17AM 40.8193 127.8438 18° North  Level Estimated
01:18AM 40.8936 127.8763 18° North  Level Estimated
01:19AM 40.9678 127.9089 18° North  Level Estimated
01:20AM 41.0421 127.9416 18° North  Level Estimated
01:21AM 41.1163 127.9744 18° North  Level Estimated
01:22AM 41.1905 128.0072 18° North  Level Estimated
01:23AM 41.2647 128.0401 18° North  Level Estimated
01:24AM 41.3389 128.0730 18° North  Level Estimated
01:25AM 41.4131 128.1061 18° North  Level Estimated
01:26AM 41.4873 128.1392 18° North  Level Estimated
01:27AM 41.5615 128.1724 19° North  Level Estimated
01:28AM 41.6356 128.2057 19° North  Level Estimated
01:29AM 41.7098 128.2390 19° North  Level Estimated
01:30AM 41.7839 128.2724 19° North  Level Estimated
01:31AM 41.8581 128.3060 19° North  Level Estimated
01:32AM 41.9322 128.3395 19° North  Level Estimated
01:33AM 42.0063 128.3732 19° North  Level Estimated
01:34AM 42.0804 128.4069 19° North  Level Estimated
01:35AM 42.1545 128.4408 19° North  Level Estimated
01:36AM 42.2286 128.4747 19° North  Level Estimated
01:37AM 42.3026 128.5086 19° North  Level Estimated
01:38AM 42.3767 128.5427 19° North  Level Estimated
01:39AM 42.4507 128.5768 19° North  Level Estimated
01:40AM 42.5248 128.6111 19° North  Level Estimated
01:41AM 42.5988 128.6454 19° North  Level Estimated
01:42AM 42.6728 128.6797 19° North  Level Estimated
01:43AM 42.7468 128.7142 19° North  Level Estimated
01:44AM 42.8208 128.7487 19° North  Level Estimated
01:45AM 42.8948 128.7834 19° North  Level Estimated
01:46AM 42.9688 128.8181 19° North  Level Estimated
01:47AM 43.0428 128.8529 19° North  Level Estimated
01:48AM 43.1167 128.8877 19° North  Level Estimated
01:49AM 43.1907 128.9227 19° North  Level Estimated
01:50AM 43.2646 128.9577 19° North  Level Estimated
01:51AM 43.3386 128.9929 19° North  Level Estimated
01:52AM 43.4125 129.0281 19° North  Level Estimated
01:53AM 43.4864 129.0634 19° North  Level Estimated
01:54AM 43.5603 129.0988 19° North  Level Estimated
01:55AM 43.6342 129.1343 19° North  Level Estimated
01:56AM 43.7080 129.1698 19° North  Level Estimated
01:57AM 43.7819 129.2055 19° North  Level Estimated
01:58AM 43.8558 129.2412 19° North  Level Estimated
01:59AM 43.9296 129.2771 19° North  Level Estimated
02:00AM 44.0034 129.3130 19° North  Level Estimated
02:01AM 44.0772 129.3490 19° North  Level Estimated
02:02AM 44.1511 129.3851 19° North  Level Estimated
02:03AM 44.2248 129.4212 19° North  Level Estimated
02:04AM 44.2986 129.4575 19° North  Level Estimated
02:05AM 44.3724 129.4939 19° North  Level Estimated
02:06AM 44.4462 129.5304 19° North  Level Estimated
02:07AM 44.5199 129.5669 19° North  Level Estimated
02:08AM 44.5241 129.5690 19° North  Level Estimated
02:09AM 44.5241 129.5690 35° Northeast  Level Estimated
02:10AM 44.5241 129.5690 35° Northeast  Level Estimated
02:11AM 44.5241 129.5690 35° Northeast  Level Estimated
02:12AM 44.5241 129.5690 35° Northeast  Level Estimated
02:13AM 44.5241 129.5690 35° Northeast  Level Estimated
02:14AM 44.5241 129.5690 35° Northeast  Level Estimated
02:15AM 44.5241 129.5690 35° Northeast  Level Estimated
02:16AM 44.5241 129.5690 35° Northeast  Level Estimated
02:17AM 44.5241 129.5690 35° Northeast  Level Estimated
02:18AM 44.5241 129.5690 35° Northeast  Level Estimated
02:19AM 44.5241 129.5690 35° Northeast  Level Estimated
02:20AM 44.5241 129.5690 35° Northeast  Level Estimated
02:21AM 44.5241 129.5690 35° Northeast  Level Estimated
02:22AM 44.5241 129.5690 35° Northeast  Level Estimated